Portada
METAR-TAF:

METAR-TAF

Aeropuertos :

Tri-City Airport

Parsons, Kansas, Estados Unidos

latitud: 37-19-40N, longitud: 095-30-15W, altitud: 274 m

Observación

El informe se hizo hace 8 minutos, a las 06:52 UTC
Viento calma
Temperatura 22°C
Humedad 94%
Presión 1015 hPa
Visibilidad: 16.1 km
Cielo despejado

METAR: KPPF 060652Z AUTO 00000KT 10SM CLR 22/21 A2996 RMK AO2 SLP133 T02220211

Hora: 02:00 (07:00 UTC)


TAF: falta

Observaciones y pronósticos meteorológicos de más de 4000 aeropuertos (mensajes METAR y TAF).

Los puntos amarillos y rojos representan las estaciones disponibles.

Ponga el ratón en el punto deseado para ver el nombre de la estación.

Haga clic para ver las observaciones y los pronósticos meteorológicos.

Para cambiar el mapa : haga clic en los botones verdes con una cruz de color negro para hacer un zoom, en el botón verde con un guión para alejar o en las flechas verdes para mapas adyacentes.


METAR-TAF: